createdAt,value
2023-03-17T00:02:01.147Z,3.00
2023-03-17T00:04:29.694Z,3.22
2023-03-17T00:06:58.043Z,3.30
2023-03-17T00:09:26.709Z,3.08
2023-03-17T00:11:55.405Z,2.72
2023-03-17T00:14:23.927Z,3.03
2023-03-17T00:16:53.735Z,3.10
2023-03-17T00:19:30.055Z,2.95
2023-03-17T00:21:59.173Z,2.72
2023-03-17T00:24:27.700Z,2.83
2023-03-17T00:26:56.179Z,2.95
2023-03-17T00:29:25.608Z,3.13
2023-03-17T00:31:54.780Z,2.75
2023-03-17T00:34:24.694Z,3.17
2023-03-17T00:36:53.609Z,2.83
2023-03-17T00:39:22.003Z,3.30
2023-03-17T00:41:50.463Z,2.70
2023-03-17T00:44:18.916Z,2.90
2023-03-17T00:46:47.413Z,3.10
2023-03-17T00:51:47.944Z,3.60
2023-03-17T00:54:17.263Z,3.03
2023-03-17T00:56:46.896Z,2.75
2023-03-17T00:59:22.015Z,3.20
2023-03-17T01:01:51.362Z,2.97
2023-03-17T01:04:20.177Z,3.03
2023-03-17T01:06:52.284Z,3.20
2023-03-17T01:09:25.934Z,3.25
2023-03-17T01:11:55.234Z,3.13
2023-03-17T01:14:24.964Z,2.67
2023-03-17T01:16:55.300Z,2.90
2023-03-17T01:19:23.843Z,2.83
2023-03-17T01:21:53.659Z,3.10
2023-03-17T01:24:22.065Z,2.90
2023-03-17T01:26:50.971Z,3.33
2023-03-17T01:29:19.390Z,3.20
2023-03-17T01:31:47.907Z,3.05
2023-03-17T01:34:16.666Z,3.00
2023-03-17T01:36:45.178Z,3.25
2023-03-17T01:39:15.400Z,3.22
2023-03-17T01:41:45.722Z,3.40
2023-03-17T01:44:18.526Z,3.67
2023-03-17T01:46:47.686Z,3.10
2023-03-17T01:49:21.217Z,3.28
2023-03-17T01:51:57.706Z,3.40
2023-03-17T01:54:31.944Z,3.58
2023-03-17T01:57:05.649Z,3.38
2023-03-17T01:59:39.842Z,3.88
2023-03-17T02:02:12.450Z,3.20
2023-03-17T02:04:41.146Z,3.50
2023-03-17T02:07:10.216Z,3.78
2023-03-17T02:09:40.278Z,3.70
2023-03-17T02:12:12.034Z,3.35
2023-03-17T02:14:41.665Z,3.60
2023-03-17T02:17:10.320Z,3.35
2023-03-17T02:19:39.051Z,3.70
2023-03-17T02:22:09.399Z,3.78
2023-03-17T02:24:41.834Z,3.70
2023-03-17T02:27:14.846Z,3.58
2023-03-17T02:29:46.473Z,3.35
2023-03-17T02:32:18.400Z,3.45
2023-03-17T02:34:47.689Z,3.97
2023-03-17T02:37:18.907Z,3.00
2023-03-17T02:39:47.779Z,3.15
2023-03-17T02:42:16.261Z,3.40
2023-03-17T02:44:45.102Z,3.35
2023-03-17T02:47:14.491Z,4.13
2023-03-17T02:49:44.122Z,3.95
2023-03-17T02:52:13.424Z,4.03
2023-03-17T02:54:43.234Z,3.85
2023-03-17T02:57:11.815Z,4.57
2023-03-17T02:59:40.513Z,3.78
2023-03-17T03:02:09.167Z,4.00
2023-03-17T03:04:37.683Z,4.47
2023-03-17T03:07:06.606Z,4.40
2023-03-17T03:09:35.362Z,3.80
2023-03-17T03:12:06.192Z,3.88
2023-03-17T03:14:34.648Z,4.03
2023-03-17T03:17:03.037Z,4.07
2023-03-17T03:19:31.528Z,4.00
2023-03-17T03:21:59.945Z,4.20
2023-03-17T03:24:28.482Z,4.10
2023-03-17T03:26:56.865Z,4.20
2023-03-17T03:29:27.195Z,4.32
2023-03-17T03:31:55.609Z,4.00
2023-03-17T03:34:24.019Z,3.80
2023-03-17T03:36:52.494Z,4.03
2023-03-17T03:39:20.729Z,4.10
2023-03-17T03:41:49.096Z,5.25
2023-03-17T03:44:17.483Z,4.15
2023-03-17T03:46:47.364Z,4.20
2023-03-17T03:49:15.834Z,4.53
2023-03-17T03:51:44.266Z,4.25
2023-03-17T03:54:12.573Z,4.40
2023-03-17T03:56:43.624Z,3.78
2023-03-17T03:59:12.028Z,3.97
2023-03-17T04:01:41.777Z,4.40
2023-03-17T04:04:11.737Z,4.32
2023-03-17T04:06:40.272Z,4.10
2023-03-17T04:09:10.880Z,4.28
2023-03-17T04:11:39.279Z,4.35
2023-03-17T04:14:07.797Z,4.07
2023-03-17T04:16:36.168Z,4.47
2023-03-17T04:19:04.681Z,3.83
2023-03-17T04:21:34.495Z,4.43
2023-03-17T04:24:02.923Z,4.20
2023-03-17T04:26:31.659Z,3.78
2023-03-17T04:29:00.136Z,4.00
2023-03-17T04:31:28.530Z,4.07
2023-03-17T04:33:57.010Z,4.05
2023-03-17T04:36:25.786Z,3.60
2023-03-17T04:38:55.773Z,4.32
2023-03-17T04:41:24.242Z,3.95
2023-03-17T04:43:52.564Z,3.85
2023-03-17T04:46:21.055Z,3.75
2023-03-17T04:48:49.295Z,3.60
2023-03-17T04:51:17.838Z,4.15
2023-03-17T04:53:46.455Z,3.65
2023-03-17T04:56:16.407Z,3.83
2023-03-17T04:58:44.789Z,3.60
2023-03-17T05:01:13.488Z,3.70
2023-03-17T05:03:41.956Z,4.03
2023-03-17T05:06:10.405Z,3.90
2023-03-17T05:08:38.824Z,3.88
2023-03-17T05:11:10.853Z,3.65
2023-03-17T05:13:42.142Z,3.90
2023-03-17T05:16:11.825Z,3.80
2023-03-17T05:18:41.885Z,4.05
2023-03-17T05:21:10.789Z,3.65
2023-03-17T05:23:40.521Z,3.72
2023-03-17T05:26:09.403Z,3.75
2023-03-17T05:28:37.773Z,3.55
2023-03-17T05:31:10.826Z,3.80
2023-03-17T05:33:39.707Z,3.45
2023-03-17T05:36:08.726Z,3.53
2023-03-17T05:38:37.234Z,3.70
2023-03-17T05:41:05.986Z,4.10
2023-03-17T05:43:34.440Z,3.95
2023-03-17T05:46:03.974Z,3.75
2023-03-17T05:48:33.872Z,3.90
2023-03-17T05:51:02.609Z,3.70
2023-03-17T05:53:31.401Z,4.05
2023-03-17T05:55:59.781Z,3.70
2023-03-17T05:58:28.107Z,3.60
2023-03-17T06:00:57.164Z,3.22
2023-03-17T06:03:25.592Z,3.63
2023-03-17T06:05:55.459Z,3.45
2023-03-17T06:08:24.014Z,3.83
2023-03-17T06:10:52.864Z,3.40
2023-03-17T06:13:21.399Z,3.63
2023-03-17T06:15:52.737Z,3.63
2023-03-17T06:18:21.151Z,3.35
2023-03-17T06:20:49.657Z,3.65
2023-03-17T06:23:19.444Z,3.72
2023-03-17T06:25:48.522Z,3.63
2023-03-17T06:28:17.062Z,3.63
2023-03-17T06:30:45.803Z,3.53
2023-03-17T06:33:14.256Z,3.67
2023-03-17T06:35:42.984Z,3.50
2023-03-17T06:38:11.488Z,3.65
2023-03-17T06:40:41.609Z,3.50
2023-03-17T06:43:10.403Z,3.53
2023-03-17T06:45:38.814Z,3.70
2023-03-17T06:48:08.020Z,3.75
2023-03-17T06:50:36.808Z,3.58
2023-03-17T06:53:06.293Z,4.00
2023-03-17T06:55:35.029Z,3.60
2023-03-17T06:58:05.263Z,3.42
2023-03-17T07:00:33.789Z,3.55
2023-03-17T07:03:03.196Z,3.67
2023-03-17T07:05:32.025Z,3.72
2023-03-17T07:08:01.210Z,3.85
2023-03-17T07:10:30.539Z,3.60
2023-03-17T07:12:59.679Z,3.42
2023-03-17T07:15:32.112Z,3.83
2023-03-17T07:20:29.035Z,3.35
2023-03-17T07:22:58.120Z,3.70
2023-03-17T07:25:26.609Z,3.42
2023-03-17T07:27:55.060Z,3.65
2023-03-17T07:30:23.581Z,4.30
2023-03-17T07:32:54.061Z,4.30
2023-03-17T07:35:22.843Z,3.55
2023-03-17T07:37:51.416Z,3.50
2023-03-17T07:40:20.198Z,3.13
2023-03-17T07:42:48.633Z,3.03
2023-03-17T07:45:17.469Z,3.20
2023-03-17T07:47:46.481Z,3.13
2023-03-17T07:50:17.048Z,3.60
2023-03-17T07:52:45.757Z,3.25
2023-03-17T07:55:14.424Z,3.08
2023-03-17T07:57:43.240Z,3.50
2023-03-17T08:00:13.866Z,3.08
2023-03-17T08:02:42.579Z,3.47
2023-03-17T08:05:11.760Z,3.47
2023-03-17T08:07:41.810Z,3.08
2023-03-17T08:10:13.380Z,3.20
2023-03-17T08:12:42.680Z,2.97
2023-03-17T08:15:12.339Z,3.55
2023-03-17T08:17:40.878Z,3.03
2023-03-17T08:20:11.604Z,3.40
2023-03-17T08:22:41.745Z,2.70
2023-03-17T08:25:11.811Z,3.10
2023-03-17T08:27:40.744Z,3.13
2023-03-17T08:30:10.716Z,3.30
2023-03-17T08:32:39.254Z,2.85
2023-03-17T08:35:08.306Z,3.15
2023-03-17T08:37:37.950Z,2.60
2023-03-17T08:40:10.137Z,2.90
2023-03-17T08:42:38.815Z,3.03
2023-03-17T08:45:08.158Z,3.30
2023-03-17T08:47:37.448Z,2.75
2023-03-17T08:50:11.491Z,2.90
2023-03-17T08:52:39.917Z,3.10
2023-03-17T08:55:11.015Z,3.30
2023-03-17T08:57:39.606Z,2.97
2023-03-17T09:00:11.380Z,2.97
2023-03-17T09:02:40.411Z,2.50
2023-03-17T09:05:09.560Z,3.25
2023-03-17T09:07:38.128Z,3.40
2023-03-17T09:10:08.810Z,2.90
2023-03-17T09:12:39.685Z,3.10
2023-03-17T09:15:09.192Z,3.10
2023-03-17T09:17:37.705Z,3.30
2023-03-17T09:20:07.721Z,2.90
2023-03-17T09:22:36.230Z,2.92
2023-03-17T09:25:05.195Z,2.85
2023-03-17T09:27:33.728Z,3.10
2023-03-17T09:30:03.822Z,2.90
2023-03-17T09:32:32.575Z,3.20
2023-03-17T09:35:01.084Z,3.20
2023-03-17T09:37:29.537Z,3.13
2023-03-17T09:39:59.398Z,3.08
2023-03-17T09:42:43.458Z,2.92
2023-03-17T09:45:24.309Z,3.40
2023-03-17T09:48:30.558Z,3.42
2023-03-17T09:51:03.068Z,3.22
2023-03-17T09:53:36.066Z,3.10
2023-03-17T09:56:09.097Z,3.03
2023-03-17T09:58:39.100Z,3.53
2023-03-17T10:01:12.933Z,3.22
2023-03-17T10:03:41.619Z,3.30
2023-03-17T10:06:26.574Z,3.15
2023-03-17T10:09:00.989Z,3.60
2023-03-17T10:11:39.726Z,3.40
2023-03-17T10:14:19.606Z,3.50
2023-03-17T10:16:55.717Z,3.78
2023-03-17T10:19:30.722Z,3.70
2023-03-17T10:22:02.806Z,3.88
2023-03-17T10:24:34.235Z,3.53
2023-03-17T10:27:07.411Z,3.50
2023-03-17T10:29:36.268Z,3.40
2023-03-17T10:32:06.582Z,3.30
2023-03-17T10:34:38.216Z,3.35
2023-03-17T10:37:08.839Z,3.58
2023-03-17T10:39:46.378Z,4.40
2023-03-17T10:42:23.035Z,4.25
2023-03-17T10:44:54.909Z,4.38
2023-03-17T10:47:32.845Z,4.35
2023-03-17T10:50:06.103Z,4.57
2023-03-17T10:52:41.839Z,4.18
2023-03-17T10:55:16.291Z,4.40
2023-03-17T10:57:53.871Z,4.82
2023-03-17T11:00:23.467Z,4.25
2023-03-17T11:02:58.566Z,3.67
2023-03-17T11:05:29.286Z,3.90
2023-03-17T11:08:10.566Z,3.45
2023-03-17T11:10:40.963Z,4.03
2023-03-17T11:13:10.465Z,3.75
2023-03-17T11:15:42.635Z,3.67
2023-03-17T11:18:19.646Z,3.40
2023-03-17T11:20:53.593Z,3.70
2023-03-17T11:23:47.347Z,3.53
2023-03-17T11:26:42.734Z,3.60
2023-03-17T11:29:24.014Z,3.60
2023-03-17T11:31:59.601Z,4.30
2023-03-17T11:34:41.837Z,4.30
2023-03-17T11:37:22.840Z,3.83
2023-03-17T11:39:59.984Z,4.00
2023-03-17T11:42:33.398Z,4.05
2023-03-17T11:45:25.288Z,3.53
2023-03-17T11:48:16.505Z,3.40
2023-03-17T11:50:56.794Z,3.83
2023-03-17T11:53:41.704Z,4.55
2023-03-17T11:56:17.037Z,3.50
2023-03-17T11:58:46.857Z,4.25
2023-03-17T12:01:21.613Z,3.97
2023-03-17T12:03:55.030Z,3.75
2023-03-17T12:06:30.850Z,4.10
2023-03-17T12:09:03.348Z,3.67
2023-03-17T12:11:37.092Z,4.32
2023-03-17T12:14:08.560Z,3.80
2023-03-17T12:16:41.973Z,3.65
2023-03-17T12:19:17.725Z,4.40
2023-03-17T12:21:53.155Z,4.13
2023-03-17T12:24:26.925Z,4.30
2023-03-17T12:26:59.637Z,4.20
2023-03-17T12:32:08.379Z,4.22
2023-03-17T12:34:44.855Z,4.03
2023-03-17T12:37:17.658Z,4.70
2023-03-17T12:39:54.939Z,4.20
2023-03-17T12:42:47.181Z,4.47
2023-03-17T12:45:43.195Z,4.00
2023-03-17T12:48:45.270Z,4.38
2023-03-17T12:51:38.369Z,4.45
2023-03-17T12:54:15.558Z,4.18
2023-03-17T12:56:47.341Z,4.30
2023-03-17T12:59:19.745Z,4.60
2023-03-17T13:01:57.618Z,4.93
2023-03-17T13:04:28.412Z,4.63
2023-03-17T13:07:05.447Z,4.63
2023-03-17T13:09:45.711Z,4.40
2023-03-17T13:12:56.094Z,4.18
2023-03-17T13:15:53.055Z,4.60
2023-03-17T13:18:50.635Z,4.65
2023-03-17T13:21:23.964Z,4.65
2023-03-17T13:23:59.158Z,5.00
2023-03-17T13:26:58.225Z,4.80
2023-03-17T13:29:45.748Z,5.25
2023-03-17T13:32:38.717Z,4.63
2023-03-17T13:38:07.480Z,4.82
2023-03-17T13:40:47.475Z,4.50
2023-03-17T13:43:41.878Z,5.38
2023-03-17T13:46:28.288Z,4.90
2023-03-17T13:48:58.268Z,4.80
2023-03-17T13:51:32.327Z,5.10
2023-03-17T13:54:11.646Z,4.93
2023-03-17T13:56:50.971Z,5.13
2023-03-17T13:59:22.288Z,4.82
2023-03-17T14:01:57.841Z,4.95
2023-03-17T14:04:29.526Z,4.90
2023-03-17T14:07:01.895Z,4.80
2023-03-17T14:09:38.189Z,5.05
2023-03-17T14:12:14.593Z,5.00
2023-03-17T14:14:53.926Z,4.95
2023-03-17T14:17:29.195Z,5.15
2023-03-17T14:20:09.358Z,5.00
2023-03-17T14:22:44.985Z,5.10
2023-03-17T14:25:19.005Z,5.43
2023-03-17T14:27:50.516Z,5.38
2023-03-17T14:30:23.592Z,5.25
2023-03-17T14:32:58.121Z,5.10
2023-03-17T14:35:30.768Z,5.38
2023-03-17T14:40:29.701Z,5.03
2023-03-17T14:42:58.254Z,5.50
2023-03-17T14:45:43.178Z,5.10
2023-03-17T14:48:14.710Z,5.55
2023-03-17T14:50:53.131Z,5.20
2023-03-17T14:53:24.242Z,5.38
2023-03-17T14:55:54.127Z,5.25
2023-03-17T14:58:26.296Z,5.00
2023-03-17T15:01:03.303Z,4.68
2023-03-17T15:03:34.431Z,4.45
2023-03-17T15:06:21.058Z,5.28
2023-03-17T15:08:49.743Z,4.28
2023-03-17T15:11:24.941Z,4.90
2023-03-17T15:13:58.313Z,4.40
2023-03-17T15:16:30.810Z,4.70
2023-03-17T15:19:07.780Z,4.72
2023-03-17T15:21:40.011Z,4.78
2023-03-17T15:24:24.126Z,4.90
2023-03-17T15:26:59.594Z,4.20
2023-03-17T15:29:28.369Z,4.25
2023-03-17T15:32:04.207Z,4.78
2023-03-17T15:34:32.934Z,4.15
2023-03-17T15:37:01.434Z,4.35
2023-03-17T15:39:30.016Z,4.45
2023-03-17T15:41:58.571Z,4.75
2023-03-17T15:44:27.179Z,4.25
2023-03-17T15:46:55.936Z,4.28
2023-03-17T15:49:27.419Z,4.25
2023-03-17T15:51:56.049Z,4.13
2023-03-17T15:54:24.400Z,4.68
2023-03-17T15:56:52.854Z,4.78
2023-03-17T15:59:21.512Z,4.32
2023-03-17T16:01:50.163Z,4.28
2023-03-17T16:04:19.215Z,4.65
2023-03-17T16:06:49.314Z,4.13
2023-03-17T16:09:18.549Z,4.20
2023-03-17T16:11:47.160Z,4.57
2023-03-17T16:14:15.645Z,4.30
2023-03-17T16:16:46.140Z,4.55
2023-03-17T16:19:20.529Z,4.15
2023-03-17T16:21:50.805Z,4.60
2023-03-17T16:24:21.820Z,4.30
2023-03-17T16:26:51.049Z,3.80
2023-03-17T16:29:21.460Z,4.05
2023-03-17T16:31:51.845Z,4.40
2023-03-17T16:34:22.255Z,3.90
2023-03-17T16:36:54.331Z,4.15
2023-03-17T16:39:24.768Z,4.28
2023-03-17T16:41:54.249Z,3.60
2023-03-17T16:44:23.584Z,4.30
2023-03-17T16:46:52.264Z,3.88
2023-03-17T16:49:23.817Z,3.92
2023-03-17T16:51:53.802Z,4.05
2023-03-17T16:54:22.470Z,4.50
2023-03-17T16:56:51.555Z,4.10
2023-03-17T16:59:21.694Z,3.95
2023-03-17T17:01:50.304Z,3.55
2023-03-17T17:04:18.848Z,4.40
2023-03-17T17:06:47.434Z,5.20
2023-03-17T17:09:17.605Z,4.00
2023-03-17T17:11:46.348Z,4.40
2023-03-17T17:14:14.858Z,4.13
2023-03-17T17:16:43.416Z,4.22
2023-03-17T17:19:16.832Z,4.30
2023-03-17T17:21:45.938Z,4.57
2023-03-17T17:24:16.282Z,4.55
2023-03-17T17:26:44.865Z,4.15
2023-03-17T17:29:13.600Z,4.03
2023-03-17T17:31:44.552Z,3.78
2023-03-17T17:34:13.213Z,4.80
2023-03-17T17:36:42.858Z,4.88
2023-03-17T17:39:11.991Z,4.03
2023-03-17T17:41:41.964Z,4.07
2023-03-17T17:44:10.631Z,4.15
2023-03-17T17:46:39.182Z,3.92
2023-03-17T17:49:07.915Z,4.10
2023-03-17T17:51:38.609Z,4.32
2023-03-17T17:54:07.803Z,3.92
2023-03-17T17:56:40.332Z,3.83
2023-03-17T17:59:11.225Z,4.10
2023-03-17T18:01:40.523Z,3.90
2023-03-17T18:04:09.945Z,4.18
2023-03-17T18:06:38.547Z,4.43
2023-03-17T18:09:07.067Z,4.07
2023-03-17T18:11:38.566Z,3.83
2023-03-17T18:14:08.003Z,4.40
2023-03-17T18:16:39.247Z,4.18
2023-03-17T18:19:10.087Z,4.65
2023-03-17T18:21:38.578Z,4.00
2023-03-17T18:24:07.664Z,4.85
2023-03-17T18:26:37.000Z,4.15
2023-03-17T18:29:05.557Z,4.32
2023-03-17T18:31:38.552Z,4.72
2023-03-17T18:34:12.731Z,4.47
2023-03-17T18:36:42.107Z,4.80
2023-03-17T18:39:10.542Z,4.70
2023-03-17T18:41:39.461Z,3.90
2023-03-17T18:44:10.195Z,4.75
2023-03-17T18:46:39.171Z,4.20
2023-03-17T18:49:09.372Z,4.43
2023-03-17T18:51:37.970Z,4.50
2023-03-17T18:54:06.900Z,4.28
2023-03-17T18:56:35.666Z,4.40
2023-03-17T18:59:04.189Z,4.65
2023-03-17T19:01:33.054Z,4.43
2023-03-17T19:04:01.977Z,4.25
2023-03-17T19:06:32.160Z,4.85
2023-03-17T19:09:00.959Z,4.45
2023-03-17T19:11:29.936Z,4.20
2023-03-17T19:13:58.671Z,5.20
2023-03-17T19:16:29.180Z,4.75
2023-03-17T19:18:57.881Z,4.03
2023-03-17T19:21:26.765Z,3.70
2023-03-17T19:24:00.755Z,3.20
2023-03-17T19:26:30.578Z,2.60
2023-03-17T19:28:59.075Z,2.60
2023-03-17T19:31:27.464Z,2.50
2023-03-17T19:33:56.762Z,2.65
2023-03-17T19:36:25.424Z,2.70
2023-03-17T19:38:54.010Z,2.08
2023-03-17T19:41:23.760Z,2.33
2023-03-17T19:43:52.239Z,1.98
2023-03-17T19:46:20.730Z,2.47
2023-03-17T19:48:49.189Z,2.63
2023-03-17T19:51:18.235Z,2.20
2023-03-17T19:53:46.878Z,1.90
2023-03-17T19:56:15.454Z,2.10
2023-03-17T19:58:45.806Z,1.80
2023-03-17T20:01:14.872Z,2.00
2023-03-17T20:03:45.964Z,2.10
2023-03-17T20:06:15.315Z,2.00
2023-03-17T20:08:44.125Z,2.00
2023-03-17T20:11:13.614Z,1.90
2023-03-17T20:13:42.188Z,1.77
2023-03-17T20:16:12.575Z,1.67
2023-03-17T20:18:41.114Z,2.03
2023-03-17T20:21:13.788Z,2.10
2023-03-17T20:23:42.497Z,2.40
2023-03-17T20:26:11.046Z,2.33
2023-03-17T20:28:39.903Z,2.92
2023-03-17T20:31:09.363Z,2.53
2023-03-17T20:33:39.554Z,2.88
2023-03-17T20:36:09.548Z,2.90
2023-03-17T20:38:39.147Z,2.55
2023-03-17T20:41:09.902Z,2.80
2023-03-17T20:43:39.278Z,2.50
2023-03-17T20:46:09.407Z,2.75
2023-03-17T20:48:39.516Z,2.65
2023-03-17T20:51:10.254Z,2.65
2023-03-17T20:53:39.011Z,2.75
2023-03-17T20:56:08.713Z,2.63
2023-03-17T20:58:37.244Z,2.90
2023-03-17T21:01:05.984Z,3.08
2023-03-17T21:03:34.599Z,3.13
2023-03-17T21:06:04.821Z,3.17
2023-03-17T21:08:34.045Z,3.30
2023-03-17T21:11:02.934Z,2.88
2023-03-17T21:13:32.426Z,3.20
2023-03-17T21:16:02.350Z,3.20
2023-03-17T21:18:31.908Z,3.40
2023-03-17T21:21:00.315Z,3.28
2023-03-17T21:23:30.197Z,3.05
2023-03-17T21:25:58.722Z,3.15
2023-03-17T21:28:27.524Z,2.70
2023-03-17T21:30:55.986Z,3.15
2023-03-17T21:33:24.959Z,3.25
2023-03-17T21:35:53.517Z,2.63
2023-03-17T21:38:22.182Z,3.13
2023-03-17T21:40:52.028Z,3.22
2023-03-17T21:43:20.506Z,3.00
2023-03-17T21:45:49.409Z,2.92
2023-03-17T21:48:18.510Z,3.10
2023-03-17T21:50:48.972Z,3.38
2023-03-17T21:53:17.505Z,3.03
2023-03-17T21:55:46.117Z,3.40
2023-03-17T21:58:16.024Z,3.20
2023-03-17T22:00:45.972Z,3.55
2023-03-17T22:03:14.895Z,2.88
2023-03-17T22:05:44.121Z,3.10
2023-03-17T22:08:13.169Z,3.15
2023-03-17T22:10:41.837Z,3.40
2023-03-17T22:13:10.245Z,3.50
2023-03-17T22:15:41.153Z,3.60
2023-03-17T22:18:09.632Z,3.35
2023-03-17T22:20:38.899Z,4.32
2023-03-17T22:23:07.641Z,2.97
2023-03-17T22:25:36.260Z,3.60
2023-03-17T22:28:04.830Z,3.63
2023-03-17T22:30:33.511Z,3.67
2023-03-17T22:33:03.686Z,3.50
2023-03-17T22:35:32.339Z,3.90
2023-03-17T22:38:00.754Z,3.35
2023-03-17T22:40:29.248Z,4.03
2023-03-17T22:42:58.305Z,3.30
2023-03-17T22:45:27.177Z,4.10
2023-03-17T22:47:56.693Z,3.45
2023-03-17T22:50:26.751Z,3.42
2023-03-17T22:52:55.320Z,3.38
2023-03-17T22:55:23.830Z,3.38
2023-03-17T22:57:52.384Z,3.50
2023-03-17T23:00:21.043Z,3.78
2023-03-17T23:02:49.542Z,4.10
2023-03-17T23:05:18.127Z,3.63
2023-03-17T23:07:51.780Z,3.50
2023-03-17T23:10:23.308Z,3.67
2023-03-17T23:12:52.774Z,4.30
2023-03-17T23:15:22.197Z,3.90
2023-03-17T23:17:50.907Z,4.03
2023-03-17T23:20:19.591Z,3.53
2023-03-17T23:22:49.503Z,3.83
2023-03-17T23:25:18.462Z,3.70
2023-03-17T23:27:48.158Z,3.70
2023-03-17T23:30:18.088Z,3.78
2023-03-17T23:32:47.009Z,3.83
2023-03-17T23:35:16.206Z,4.03
2023-03-17T23:37:44.837Z,4.18
2023-03-17T23:40:17.400Z,3.53
2023-03-17T23:42:46.134Z,4.22
2023-03-17T23:45:15.418Z,3.90
2023-03-17T23:47:44.625Z,4.28
2023-03-17T23:50:14.542Z,4.95
2023-03-17T23:52:43.963Z,4.25
2023-03-17T23:55:16.127Z,4.18
2023-03-17T23:57:44.632Z,4.00
